This is the latest recevied weather packets stored in our database for station/object IU1OLT-7. If no packets are shown the sender has not sent any weather packets the latest 10 day(s).
| Time | Temp. | Humidity | Pressure | Rain* | Wind** | Luminosity | Snow |
|---|---|---|---|---|---|---|---|
| 1788404160 | 24.44° C | 49% | 1024.4 hPa | - | - | - | - |
| 1788403260 | 24.44° C | 49% | 1024.3 hPa | - | - | - | - |
| 1788402360 | 24.44° C | 52% | 1024.3 hPa | - | - | - | - |
| 1788401460 | 24.44° C | 52% | 1024.4 hPa | - | - | - | - |
| 1788400560 | 24.44° C | 52% | 1024.4 hPa | - | - | - | - |
| 1788399686 | 24.44° C | 51% | 1024.5 hPa | - | - | - | - |
| 1788398760 | 25° C | 50% | 1024.7 hPa | - | - | - | - |
| 1788397860 | 25° C | 48% | 1024.7 hPa | - | - | - | - |
| 1788396960 | 25° C | 49% | 1024.7 hPa | - | - | - | - |
| 1788396060 | 25° C | 49% | 1024.6 hPa | - | - | - | - |
| 1788395160 | 25° C | 49% | 1024.8 hPa | - | - | - | - |
| 1788394260 | 25° C | 49% | 1024.8 hPa | - | - | - | - |
| 1788393360 | 25° C | 48% | 1024.8 hPa | - | - | - | - |
| 1788392460 | 25° C | 48% | 1024.7 hPa | - | - | - | - |
| 1788391560 | 26.11° C | 41% | 1024.6 hPa | - | - | - | - |
| 1788390660 | 25.56° C | 39% | 1024.7 hPa | - | - | - | - |
| 1788389760 | 26.67° C | 37% | 1024.6 hPa | - | - | - | - |
| 1788388860 | 27.22° C | 34% | 1024.7 hPa | - | - | - | - |
| 1788387060 | 26.11° C | 36% | 1024.6 hPa | - | - | - | - |
| 1788386158 | 26.11° C | 36% | 1024.7 hPa | - | - | - | - |
| 1788385258 | 26.11° C | 34% | 1024.6 hPa | - | - | - | - |
| 1788384358 | 26.67° C | 28% | 1024.6 hPa | - | - | - | - |
| 1788383458 | 27.22° C | 26% | 1024.6 hPa | - | - | - | - |
| 1788382568 | 26.67° C | 28% | 1024.5 hPa | - | - | - | - |
| 1788381658 | 26.11° C | 32% | 1024.5 hPa | - | - | - | - |
* Rain since midnight (hover to see other rain measurements)
** Current wind speed in m/s (hover to see current wind gust speed)